Time,TemperatureF,DewpointF,PressureIn,WindDirection,WindDirectionDegrees,WindSpeedMPH,WindSpeedGustMPH,Humidity,HourlyPrecipIn,Conditions,Clouds,dailyrainin,SoftwareType,DateUTC
2013-01-15 00:00:00,38.0,-99.9,30.61,East,80,7.0,9.0,-999,-99.99,,,-99.99,,2013-01-15 08:00:00,
2013-01-15 00:53:00,38.0,-99.9,30.61,East,80,7.0,9.0,-999,-99.99,,,-99.99,,2013-01-15 08:53:00,
2013-01-15 01:00:00,38.0,-99.9,30.63,East,80,4.0,7.0,-999,-99.99,,,-99.99,,2013-01-15 09:00:00,
2013-01-15 01:53:00,38.0,-99.9,30.63,East,80,4.0,7.0,-999,-99.99,,,-99.99,,2013-01-15 09:53:00,
2013-01-15 02:00:00,38.0,-99.9,30.65,NE,50,2.0,2.0,-999,-99.99,,,-99.99,,2013-01-15 10:00:00,
2013-01-15 02:52:00,38.0,-99.9,30.65,NE,50,2.0,2.0,-999,-99.99,,,-99.99,,2013-01-15 10:52:00,
2013-01-15 03:00:00,38.0,-99.9,30.65,North,0,0.0,0.0,-999,-99.99,,,-99.99,,2013-01-15 11:00:00,
2013-01-15 03:53:00,38.0,-99.9,30.65,North,0,0.0,0.0,-999,-99.99,,,-99.99,,2013-01-15 11:53:00,
2013-01-15 04:00:00,38.0,-99.9,30.64,NNW,340,0.0,2.0,-999,-99.99,,,-99.99,,2013-01-15 12:00:00,
2013-01-15 04:53:00,38.0,-99.9,30.64,NNW,340,0.0,2.0,-999,-99.99,,,-99.99,,2013-01-15 12:53:00,
2013-01-15 05:00:00,38.0,-99.9,30.64,NNE,20,2.0,4.0,-999,-99.99,,,-99.99,,2013-01-15 13:00:00,
2013-01-15 05:53:00,38.0,-99.9,30.64,NNE,20,2.0,4.0,-999,-99.99,,,-99.99,,2013-01-15 13:53:00,
2013-01-15 06:00:00,38.0,-99.9,30.65,North,350,4.0,7.0,-999,-99.99,,,-99.99,,2013-01-15 14:00:00,
2013-01-15 06:54:00,38.0,-99.9,30.65,North,350,4.0,7.0,-999,-99.99,,,-99.99,,2013-01-15 14:54:00,
2013-01-15 07:00:00,38.0,-99.9,30.67,NNW,340,4.0,7.0,-999,-99.99,,,-99.99,,2013-01-15 15:00:00,
2013-01-15 07:53:00,38.0,-99.9,30.67,NNW,340,4.0,7.0,-999,-99.99,,,-99.99,,2013-01-15 15:53:00,
2013-01-15 08:00:00,38.0,-99.9,30.68,NNW,340,0.0,4.0,-999,-99.99,,,-99.99,,2013-01-15 16:00:00,
2013-01-15 08:53:00,38.0,-99.9,30.68,NNW,340,0.0,4.0,-999,-99.99,,,-99.99,,2013-01-15 16:53:00,
2013-01-15 09:00:00,38.0,-99.9,30.70,North,10,0.0,2.0,-999,-99.99,,,-99.99,,2013-01-15 17:00:00,
2013-01-15 09:53:00,38.0,-99.9,30.70,North,10,0.0,2.0,-999,-99.99,,,-99.99,,2013-01-15 17:53:00,
2013-01-15 10:00:00,38.0,-99.9,30.71,East,90,4.0,4.0,-999,-99.99,,,-99.99,,2013-01-15 18:00:00,
2013-01-15 10:54:00,38.0,-99.9,30.71,East,90,4.0,4.0,-999,-99.99,,,-99.99,,2013-01-15 18:54:00,
2013-01-15 11:00:00,38.0,-99.9,30.72,ESE,110,2.0,7.0,-999,-99.99,,,-99.99,,2013-01-15 19:00:00,
2013-01-15 11:53:00,38.0,-99.9,30.72,ESE,110,2.0,7.0,-999,-99.99,,,-99.99,,2013-01-15 19:53:00,
2013-01-15 12:00:00,39.0,-99.9,30.71,ESE,110,2.0,4.0,-999,-99.99,,,-99.99,,2013-01-15 20:00:00,
2013-01-15 12:53:00,39.0,-99.9,30.71,ESE,110,2.0,4.0,-999,-99.99,,,-99.99,,2013-01-15 20:53:00,
2013-01-15 13:00:00,39.0,-99.9,30.70,ESE,110,2.0,4.0,-999,-99.99,,,-99.99,,2013-01-15 21:00:00,
2013-01-15 13:53:00,39.0,-99.9,30.70,ESE,110,2.0,4.0,-999,-99.99,,,-99.99,,2013-01-15 21:53:00,
2013-01-15 14:00:00,39.0,-99.9,30.71,ESE,110,0.0,2.0,-999,-99.99,,,-99.99,,2013-01-15 22:00:00,
2013-01-15 14:53:00,39.0,-99.9,30.71,ESE,110,0.0,2.0,-999,-99.99,,,-99.99,,2013-01-15 22:53:00,
2013-01-15 15:00:00,39.0,-99.9,30.71,SE,130,2.0,4.0,-999,-99.99,,,-99.99,,2013-01-15 23:00:00,
2013-01-15 15:53:00,39.0,-99.9,30.71,SE,130,2.0,4.0,-999,-99.99,,,-99.99,,2013-01-15 23:53:00,
2013-01-15 16:00:00,39.0,-99.9,30.71,East,100,2.0,4.0,-999,-99.99,,,-99.99,,2013-01-16 00:00:00,
2013-01-15 16:53:00,39.0,-99.9,30.71,East,100,2.0,4.0,-999,-99.99,,,-99.99,,2013-01-16 00:53:00,
2013-01-15 17:00:00,39.0,-99.9,30.70,ESE,110,2.0,4.0,-999,-99.99,,,-99.99,,2013-01-16 01:00:00,
2013-01-15 17:53:00,39.0,-99.9,30.70,ESE,110,2.0,4.0,-999,-99.99,,,-99.99,,2013-01-16 01:53:00,
2013-01-15 18:00:00,39.0,-99.9,30.69,ESE,110,4.0,7.0,-999,-99.99,,,-99.99,,2013-01-16 02:00:00,
2013-01-15 18:53:00,39.0,-99.9,30.69,ESE,110,4.0,7.0,-999,-99.99,,,-99.99,,2013-01-16 02:53:00,
2013-01-15 19:00:00,40.0,-99.9,30.70,SE,130,4.0,7.0,-999,-99.99,,,-99.99,,2013-01-16 03:00:00,
2013-01-15 19:53:00,40.0,-99.9,30.70,SE,130,4.0,7.0,-999,-99.99,,,-99.99,,2013-01-16 03:53:00,
2013-01-15 20:00:00,40.0,-99.9,30.69,East,100,7.0,9.0,-999,-99.99,,,-99.99,,2013-01-16 04:00:00,
2013-01-15 20:53:00,40.0,-99.9,30.69,East,100,7.0,9.0,-999,-99.99,,,-99.99,,2013-01-16 04:53:00,
2013-01-15 21:00:00,39.0,-99.9,30.69,East,90,7.0,9.0,-999,-99.99,,,-99.99,,2013-01-16 05:00:00,
2013-01-15 21:53:00,39.0,-99.9,30.69,East,90,7.0,9.0,-999,-99.99,,,-99.99,,2013-01-16 05:53:00,
2013-01-15 22:00:00,39.0,-99.9,30.69,East,100,7.0,9.0,-999,-99.99,,,-99.99,,2013-01-16 06:00:00,
2013-01-15 22:53:00,39.0,-99.9,30.69,East,100,7.0,9.0,-999,-99.99,,,-99.99,,2013-01-16 06:53:00,
2013-01-15 23:00:00,40.0,-99.9,30.70,East,100,4.0,4.0,-999,-99.99,,,-99.99,,2013-01-16 07:00:00,
2013-01-15 23:52:00,40.0,-99.9,30.70,East,100,4.0,4.0,-999,-99.99,,,-99.99,,2013-01-16 07:52:00,